createdAt,value
2017-05-05T00:00:01.745Z,1012.3
2017-05-05T00:00:42.325Z,1012.28
2017-05-05T00:01:22.918Z,1012.3
2017-05-05T00:02:03.539Z,1012.31
2017-05-05T00:02:44.196Z,1012.28
2017-05-05T00:03:24.772Z,1012.34
2017-05-05T00:04:05.352Z,1012.26
2017-05-05T00:04:45.981Z,1012.29
2017-05-05T00:05:26.576Z,1012.31
2017-05-05T00:06:07.218Z,1012.29
2017-05-05T00:06:47.801Z,1012.32
2017-05-05T00:07:28.438Z,1012.29
2017-05-05T00:08:09.042Z,1012.32
2017-05-05T00:08:49.621Z,1012.35
2017-05-05T00:09:30.211Z,1012.31
2017-05-05T00:10:10.793Z,1012.31
2017-05-05T00:10:51.433Z,1012.28
2017-05-05T00:11:32.042Z,1012.31
2017-05-05T00:12:12.619Z,1012.33
2017-05-05T00:12:53.191Z,1012.31
2017-05-05T00:13:33.757Z,1012.32
2017-05-05T00:14:14.337Z,1012.3
2017-05-05T00:14:54.895Z,1012.29
2017-05-05T00:15:35.481Z,1012.31
2017-05-05T00:16:16.086Z,1012.32
2017-05-05T00:16:56.676Z,1012.33
2017-05-05T00:17:37.277Z,1012.28
2017-05-05T00:18:17.854Z,1012.31
2017-05-05T00:18:58.460Z,1012.32
2017-05-05T00:19:39.048Z,1012.3
2017-05-05T00:20:19.692Z,1012.31
2017-05-05T00:21:00.267Z,1012.28
2017-05-05T00:21:40.851Z,1012.36
2017-05-05T00:22:21.535Z,1012.28
2017-05-05T00:23:02.090Z,1012.26
2017-05-05T00:23:42.673Z,1012.28
2017-05-05T00:24:23.291Z,1012.27
2017-05-05T00:25:03.864Z,1012.29
2017-05-05T00:25:44.463Z,1012.26
2017-05-05T00:26:25.050Z,1012.29
2017-05-05T00:27:05.627Z,1012.27
2017-05-05T00:27:46.202Z,1012.26
2017-05-05T00:28:26.766Z,1012.26
2017-05-05T00:29:07.347Z,1012.25
2017-05-05T00:29:47.905Z,1012.24
2017-05-05T00:30:28.494Z,1012.23
2017-05-05T00:31:09.097Z,1012.24
2017-05-05T00:31:49.674Z,1012.3
2017-05-05T00:32:30.259Z,1012.25
2017-05-05T00:33:10.953Z,1012.28
2017-05-05T00:33:51.595Z,1012.22
2017-05-05T00:34:32.209Z,1012.28
2017-05-05T00:35:12.827Z,1012.26
2017-05-05T00:35:53.422Z,1012.26
2017-05-05T00:36:34.001Z,1012.27
2017-05-05T00:37:14.628Z,1012.26
2017-05-05T00:37:55.166Z,1012.27
2017-05-05T00:38:35.795Z,1012.26
2017-05-05T00:39:16.400Z,1012.22
2017-05-05T00:39:57.017Z,1012.22
2017-05-05T00:40:37.687Z,1012.2
2017-05-05T00:41:18.270Z,1012.22
2017-05-05T00:41:58.889Z,1012.2
2017-05-05T00:42:39.473Z,1012.18
2017-05-05T00:43:20.060Z,1012.23
2017-05-05T00:44:00.643Z,1012.19
2017-05-05T00:44:41.248Z,1012.18
2017-05-05T00:45:21.849Z,1012.2
2017-05-05T00:46:02.444Z,1012.21
2017-05-05T00:46:43.046Z,1012.21
2017-05-05T00:47:23.609Z,1012.19
2017-05-05T00:48:04.211Z,1012.17
2017-05-05T00:48:44.770Z,1012.18
2017-05-05T00:49:25.349Z,1012.17
2017-05-05T00:50:05.919Z,1012.17
2017-05-05T00:50:46.509Z,1012.16
2017-05-05T00:51:29.780Z,1012.12
2017-05-05T00:52:10.362Z,1012.14
2017-05-05T00:52:50.937Z,1012.17
2017-05-05T00:53:31.502Z,1012.13
2017-05-05T00:54:12.105Z,1012.13
2017-05-05T00:54:52.686Z,1012.1
2017-05-05T00:55:33.260Z,1012.15
2017-05-05T00:56:13.841Z,1012.15
2017-05-05T00:56:54.427Z,1012.15
2017-05-05T00:57:35.055Z,1012.15
2017-05-05T00:58:15.592Z,1012.14
2017-05-05T00:58:56.191Z,1012.13
2017-05-05T00:59:36.768Z,1012.14
2017-05-05T01:00:17.388Z,1012.12
2017-05-05T01:00:57.958Z,1012.09
2017-05-05T01:01:38.524Z,1012.14
2017-05-05T01:02:19.104Z,1012.12
2017-05-05T01:02:59.675Z,1012.12
2017-05-05T01:03:40.246Z,1012.14
2017-05-05T01:04:20.819Z,1012.11
2017-05-05T01:05:01.387Z,1012.1
2017-05-05T01:05:42.003Z,1012.11
2017-05-05T01:06:22.587Z,1012.14
2017-05-05T01:07:03.178Z,1012.12
2017-05-05T01:07:43.821Z,1012.07
2017-05-05T01:08:24.416Z,1012.09
2017-05-05T01:09:05.007Z,1012.12
2017-05-05T01:09:45.582Z,1012.12
2017-05-05T01:10:26.178Z,1012.11
2017-05-05T01:11:06.742Z,1012.1
2017-05-05T01:11:47.339Z,1012.12
2017-05-05T01:12:27.919Z,1012.09
2017-05-05T01:13:08.500Z,1012.08
2017-05-05T01:13:49.072Z,1012.1
2017-05-05T01:14:29.650Z,1012.08
2017-05-05T01:15:10.228Z,1012.09
2017-05-05T01:15:50.809Z,1012.13
2017-05-05T01:16:31.423Z,1012.1
2017-05-05T01:17:12.007Z,1012.12
2017-05-05T01:17:52.609Z,1012.12
2017-05-05T01:18:33.201Z,1012.12
2017-05-05T01:19:13.783Z,1012.15
2017-05-05T01:19:54.368Z,1012.14
2017-05-05T01:20:34.940Z,1012.09
2017-05-05T01:21:15.517Z,1012.17
2017-05-05T01:21:56.112Z,1012.15
2017-05-05T01:22:36.676Z,1012.16
2017-05-05T01:23:17.264Z,1012.12
2017-05-05T01:23:57.836Z,1012.09
2017-05-05T01:24:38.417Z,1012.11
2017-05-05T01:25:18.985Z,1012.12
2017-05-05T01:25:59.572Z,1012.11
2017-05-05T01:26:40.131Z,1012.11
2017-05-05T01:27:20.708Z,1012.13
2017-05-05T01:28:01.303Z,1012.14
2017-05-05T01:28:41.886Z,1012.18
2017-05-05T01:29:22.447Z,1012.17
2017-05-05T01:30:03.034Z,1012.17
2017-05-05T01:30:43.608Z,1012.16
2017-05-05T01:31:24.205Z,1012.16
2017-05-05T01:32:04.795Z,1012.2
2017-05-05T01:32:45.355Z,1012.2
2017-05-05T01:33:25.937Z,1012.17
2017-05-05T01:34:06.501Z,1012.19
2017-05-05T01:34:47.089Z,1012.21
2017-05-05T01:35:27.661Z,1012.19
2017-05-05T01:36:08.269Z,1012.19
2017-05-05T01:36:48.852Z,1012.21
2017-05-05T01:37:29.422Z,1012.2
2017-05-05T01:38:10.008Z,1012.23
2017-05-05T01:38:50.593Z,1012.2
2017-05-05T01:39:31.171Z,1012.17
2017-05-05T01:40:11.777Z,1012.19
2017-05-05T01:40:52.355Z,1012.2
2017-05-05T01:41:32.950Z,1012.21
2017-05-05T01:42:13.523Z,1012.2
2017-05-05T01:42:54.137Z,1012.22
2017-05-05T01:43:34.734Z,1012.21
2017-05-05T01:44:15.317Z,1012.21
2017-05-05T01:44:55.892Z,1012.22
2017-05-05T01:45:36.483Z,1012.2
2017-05-05T01:46:17.114Z,1012.23
2017-05-05T01:46:57.688Z,1012.21
2017-05-05T01:47:38.316Z,1012.23
2017-05-05T01:48:18.912Z,1012.18
2017-05-05T01:48:59.478Z,1012.2
2017-05-05T01:49:40.068Z,1012.2
2017-05-05T01:50:20.665Z,1012.19
2017-05-05T01:51:01.267Z,1012.22
2017-05-05T01:51:41.860Z,1012.2
2017-05-05T01:52:22.485Z,1012.21
2017-05-05T01:53:03.068Z,1012.18
2017-05-05T01:53:43.649Z,1012.2
2017-05-05T01:54:24.299Z,1012.2
2017-05-05T01:55:04.871Z,1012.21
2017-05-05T01:55:45.492Z,1012.21
2017-05-05T01:56:26.085Z,1012.22
2017-05-05T01:57:06.681Z,1012.18
2017-05-05T01:57:47.260Z,1012.19
2017-05-05T01:58:27.905Z,1012.17
2017-05-05T01:59:08.511Z,1012.18
2017-05-05T01:59:49.088Z,1012.17
2017-05-05T02:00:29.672Z,1012.17
2017-05-05T02:01:10.279Z,1012.19
2017-05-05T02:01:50.902Z,1012.19
2017-05-05T02:02:31.474Z,1012.14
2017-05-05T02:03:12.112Z,1012.17
2017-05-05T02:03:52.695Z,1012.14
2017-05-05T02:04:33.286Z,1012.12
2017-05-05T02:05:13.910Z,1012.19
2017-05-05T02:05:54.492Z,1012.19
2017-05-05T02:06:35.081Z,1012.21
2017-05-05T02:07:15.652Z,1012.21
2017-05-05T02:07:56.223Z,1012.19
2017-05-05T02:08:36.796Z,1012.26
2017-05-05T02:09:17.378Z,1012.2
2017-05-05T02:09:57.965Z,1012.24
2017-05-05T02:10:38.570Z,1012.24
2017-05-05T02:11:19.225Z,1012.23
2017-05-05T02:11:59.787Z,1012.18
2017-05-05T02:12:40.350Z,1012.22
2017-05-05T02:13:20.932Z,1012.23
2017-05-05T02:14:01.518Z,1012.26
2017-05-05T02:14:42.132Z,1012.22
2017-05-05T02:15:22.722Z,1012.22
2017-05-05T02:16:03.319Z,1012.2
2017-05-05T02:16:43.967Z,1012.24
2017-05-05T02:17:24.553Z,1012.23
2017-05-05T02:18:05.220Z,1012.2
2017-05-05T02:18:45.909Z,1012.24
2017-05-05T02:19:26.501Z,1012.27
2017-05-05T02:20:07.107Z,1012.21
2017-05-05T02:20:47.688Z,1012.24
2017-05-05T02:21:28.312Z,1012.28
2017-05-05T02:22:08.973Z,1012.26
2017-05-05T02:22:49.552Z,1012.24
2017-05-05T02:23:30.142Z,1012.23
2017-05-05T02:24:10.739Z,1012.29
2017-05-05T02:24:51.293Z,1012.27
2017-05-05T02:25:31.871Z,1012.25
2017-05-05T02:26:12.452Z,1012.25
2017-05-05T02:26:53.060Z,1012.28
2017-05-05T02:27:33.673Z,1012.3
2017-05-05T02:28:14.239Z,1012.29
2017-05-05T02:28:54.823Z,1012.3
2017-05-05T02:29:35.441Z,1012.3
2017-05-05T02:30:16.019Z,1012.31
2017-05-05T02:30:56.606Z,1012.34
2017-05-05T02:31:37.183Z,1012.36
2017-05-05T02:32:17.748Z,1012.34
2017-05-05T02:32:58.381Z,1012.35
2017-05-05T02:33:38.970Z,1012.32
2017-05-05T02:34:19.585Z,1012.35
2017-05-05T02:35:00.155Z,1012.35
2017-05-05T02:35:40.779Z,1012.3
2017-05-05T02:36:21.383Z,1012.32
2017-05-05T02:37:02.005Z,1012.29
2017-05-05T02:37:42.638Z,1012.27
2017-05-05T02:38:23.248Z,1012.28
2017-05-05T02:39:03.850Z,1012.27
2017-05-05T02:39:44.509Z,1012.26
2017-05-05T02:40:25.066Z,1012.25
2017-05-05T02:41:05.689Z,1012.27
2017-05-05T02:41:46.269Z,1012.25
2017-05-05T02:42:26.874Z,1012.25
2017-05-05T02:43:07.454Z,1012.25
2017-05-05T02:43:48.032Z,1012.24
2017-05-05T02:44:28.617Z,1012.28
2017-05-05T02:45:09.208Z,1012.27
2017-05-05T02:45:49.836Z,1012.27
2017-05-05T02:46:30.411Z,1012.26
2017-05-05T02:47:11.012Z,1012.25
2017-05-05T02:47:51.572Z,1012.22
2017-05-05T02:48:32.154Z,1012.25
2017-05-05T02:49:12.722Z,1012.2
2017-05-05T02:49:53.322Z,1012.23
2017-05-05T02:50:33.945Z,1012.18
2017-05-05T02:51:14.535Z,1012.14
2017-05-05T02:51:55.253Z,1012.15
2017-05-05T02:52:35.741Z,1012.18
2017-05-05T02:53:16.359Z,1012.15
2017-05-05T02:53:56.934Z,1012.15
2017-05-05T02:54:37.521Z,1012.16
2017-05-05T02:55:18.094Z,1012.15
2017-05-05T02:55:58.668Z,1012.17
2017-05-05T02:56:39.335Z,1012.21
2017-05-05T02:57:19.904Z,1012.21
2017-05-05T02:58:00.599Z,1012.22
2017-05-05T02:58:41.215Z,1012.26
2017-05-05T02:59:21.804Z,1012.26
2017-05-05T03:00:02.491Z,1012.27
2017-05-05T03:00:43.102Z,1012.25
2017-05-05T03:01:23.679Z,1012.26
2017-05-05T03:02:04.271Z,1012.29
2017-05-05T03:02:44.864Z,1012.3
2017-05-05T03:03:25.515Z,1012.28
2017-05-05T03:04:06.087Z,1012.31
2017-05-05T03:04:46.670Z,1012.28
2017-05-05T03:05:27.247Z,1012.3
2017-05-05T03:06:07.847Z,1012.27
2017-05-05T03:06:48.463Z,1012.3
2017-05-05T03:07:29.063Z,1012.31
2017-05-05T03:08:09.644Z,1012.28
2017-05-05T03:08:50.229Z,1012.32
2017-05-05T03:09:30.851Z,1012.36
2017-05-05T03:10:11.457Z,1012.32
2017-05-05T03:10:52.066Z,1012.34
2017-05-05T03:11:32.685Z,1012.35
2017-05-05T03:12:13.292Z,1012.31
2017-05-05T03:12:53.889Z,1012.35
2017-05-05T03:13:34.476Z,1012.34
2017-05-05T03:14:15.082Z,1012.32
2017-05-05T03:14:55.742Z,1012.32
2017-05-05T03:15:36.318Z,1012.33
2017-05-05T03:16:16.952Z,1012.32
2017-05-05T03:16:57.568Z,1012.33
2017-05-05T03:17:38.207Z,1012.37
2017-05-05T03:18:18.806Z,1012.34
2017-05-05T03:18:59.401Z,1012.34
2017-05-05T03:19:39.984Z,1012.35
2017-05-05T03:20:20.620Z,1012.38
2017-05-05T03:21:01.252Z,1012.38
2017-05-05T03:21:41.833Z,1012.36
2017-05-05T03:22:22.410Z,1012.39
2017-05-05T03:23:03.041Z,1012.39
2017-05-05T03:23:43.618Z,1012.37
2017-05-05T03:24:24.201Z,1012.38
2017-05-05T03:25:04.774Z,1012.37
2017-05-05T03:25:45.373Z,1012.39
2017-05-05T03:26:25.950Z,1012.46
2017-05-05T03:27:06.521Z,1012.42
2017-05-05T03:27:47.114Z,1012.46
2017-05-05T03:28:27.738Z,1012.47
2017-05-05T03:29:08.326Z,1012.48
2017-05-05T03:29:48.937Z,1012.51
2017-05-05T03:30:29.533Z,1012.5
2017-05-05T03:31:10.228Z,1012.5
2017-05-05T03:31:50.859Z,1012.48
2017-05-05T03:32:31.452Z,1012.46
2017-05-05T03:33:12.034Z,1012.45
2017-05-05T03:33:52.605Z,1012.42
2017-05-05T03:34:33.188Z,1012.4
2017-05-05T03:35:13.795Z,1012.43
2017-05-05T03:35:54.402Z,1012.39
2017-05-05T03:36:35.015Z,1012.41
2017-05-05T03:37:15.670Z,1012.36
2017-05-05T03:37:56.276Z,1012.39
2017-05-05T03:38:36.856Z,1012.39
2017-05-05T03:39:17.465Z,1012.42
2017-05-05T03:39:58.064Z,1012.42
2017-05-05T03:40:38.670Z,1012.43
2017-05-05T03:41:19.315Z,1012.44
2017-05-05T03:41:59.872Z,1012.5
2017-05-05T03:42:40.469Z,1012.49
2017-05-05T03:43:21.081Z,1012.52
2017-05-05T03:44:01.660Z,1012.59
2017-05-05T03:44:42.269Z,1012.59
2017-05-05T03:45:22.831Z,1012.6
2017-05-05T03:46:03.454Z,1012.6
2017-05-05T03:46:44.042Z,1012.61
2017-05-05T03:47:24.620Z,1012.6
2017-05-05T03:48:05.182Z,1012.6
2017-05-05T03:48:45.754Z,1012.61
2017-05-05T03:49:26.345Z,1012.59
2017-05-05T03:50:06.991Z,1012.56
2017-05-05T03:50:47.587Z,1012.56
2017-05-05T03:51:28.174Z,1012.57
2017-05-05T03:52:08.743Z,1012.56
2017-05-05T03:52:49.347Z,1012.58
2017-05-05T03:53:29.922Z,1012.56
2017-05-05T03:54:10.510Z,1012.55
2017-05-05T03:54:51.148Z,1012.55
2017-05-05T03:55:31.743Z,1012.53
2017-05-05T03:56:12.318Z,1012.51
2017-05-05T03:56:52.919Z,1012.54
2017-05-05T03:57:33.510Z,1012.55
2017-05-05T03:58:14.133Z,1012.5
2017-05-05T03:58:54.716Z,1012.54
2017-05-05T03:59:35.295Z,1012.5
2017-05-05T04:00:15.877Z,1012.51
2017-05-05T04:00:56.471Z,1012.51
2017-05-05T04:01:37.081Z,1012.5
2017-05-05T04:02:17.665Z,1012.48
2017-05-05T04:02:58.281Z,1012.47
2017-05-05T04:03:38.844Z,1012.53
2017-05-05T04:04:19.443Z,1012.46
2017-05-05T04:05:00.037Z,1012.46
2017-05-05T04:05:40.706Z,1012.47
2017-05-05T04:06:21.300Z,1012.44
2017-05-05T04:07:01.898Z,1012.43
2017-05-05T04:07:42.494Z,1012.46
2017-05-05T04:08:23.081Z,1012.51
2017-05-05T04:09:03.663Z,1012.48
2017-05-05T04:09:44.319Z,1012.48
2017-05-05T04:10:24.878Z,1012.49
2017-05-05T04:11:05.469Z,1012.47
2017-05-05T04:11:46.039Z,1012.45
2017-05-05T04:12:26.623Z,1012.52
2017-05-05T04:13:07.267Z,1012.48
2017-05-05T04:13:47.900Z,1012.5
2017-05-05T04:14:28.511Z,1012.53
2017-05-05T04:15:09.271Z,1012.53
2017-05-05T04:15:49.895Z,1012.51
2017-05-05T04:16:30.596Z,1012.52
2017-05-05T04:17:11.168Z,1012.58
2017-05-05T04:17:51.756Z,1012.56
2017-05-05T04:18:32.366Z,1012.58
2017-05-05T04:19:12.953Z,1012.55
2017-05-05T04:19:53.544Z,1012.6
2017-05-05T04:20:34.126Z,1012.61
2017-05-05T04:21:14.709Z,1012.64
2017-05-05T04:21:55.290Z,1012.59
2017-05-05T04:22:35.837Z,1012.62
2017-05-05T04:23:16.413Z,1012.61
2017-05-05T04:23:57.012Z,1012.63
2017-05-05T04:24:37.603Z,1012.63
2017-05-05T04:25:18.213Z,1012.63
2017-05-05T04:25:58.776Z,1012.64
2017-05-05T04:26:39.367Z,1012.6
2017-05-05T04:27:19.941Z,1012.64
2017-05-05T04:28:00.533Z,1012.63
2017-05-05T04:28:41.098Z,1012.69
2017-05-05T04:29:21.685Z,1012.64
2017-05-05T04:30:02.288Z,1012.63
2017-05-05T04:30:42.864Z,1012.62
2017-05-05T04:31:23.472Z,1012.65
2017-05-05T04:32:04.044Z,1012.69
2017-05-05T04:32:44.647Z,1012.69
2017-05-05T04:33:25.256Z,1012.72
2017-05-05T04:34:05.850Z,1012.72
2017-05-05T04:34:46.481Z,1012.72
2017-05-05T04:35:27.097Z,1012.73
2017-05-05T04:36:07.653Z,1012.71
2017-05-05T04:36:48.246Z,1012.72
2017-05-05T04:37:28.848Z,1012.73
2017-05-05T04:38:09.413Z,1012.75
2017-05-05T04:38:49.997Z,1012.73
2017-05-05T04:39:30.603Z,1012.74
2017-05-05T04:40:11.152Z,1012.73
2017-05-05T04:40:51.745Z,1012.76
2017-05-05T04:41:32.382Z,1012.75
2017-05-05T04:42:12.968Z,1012.8
2017-05-05T04:42:53.600Z,1012.76
2017-05-05T04:43:34.223Z,1012.8
2017-05-05T04:44:14.811Z,1012.78
2017-05-05T04:44:55.388Z,1012.79
2017-05-05T04:45:35.974Z,1012.81
2017-05-05T04:46:16.591Z,1012.78
2017-05-05T04:46:57.173Z,1012.72
2017-05-05T04:47:37.768Z,1012.8
2017-05-05T04:48:18.348Z,1012.77
2017-05-05T04:48:58.920Z,1012.8
2017-05-05T04:49:39.495Z,1012.79
2017-05-05T04:50:20.074Z,1012.75
2017-05-05T04:51:00.656Z,1012.75
2017-05-05T04:51:41.249Z,1012.79
2017-05-05T04:52:21.826Z,1012.78
2017-05-05T04:53:02.428Z,1012.78
2017-05-05T04:53:43.013Z,1012.79
2017-05-05T04:54:23.595Z,1012.76
2017-05-05T04:55:04.192Z,1012.78
2017-05-05T04:55:44.802Z,1012.8
2017-05-05T04:56:25.403Z,1012.83
2017-05-05T04:57:05.991Z,1012.81
2017-05-05T04:57:46.579Z,1012.83
2017-05-05T04:58:27.155Z,1012.81
2017-05-05T04:59:07.723Z,1012.86
2017-05-05T04:59:48.318Z,1012.82
2017-05-05T05:00:28.983Z,1012.86
2017-05-05T05:01:09.588Z,1012.79
2017-05-05T05:01:50.173Z,1012.82
2017-05-05T05:02:30.783Z,1012.8
2017-05-05T05:03:11.397Z,1012.8
2017-05-05T05:03:51.971Z,1012.82
2017-05-05T05:04:32.541Z,1012.81
2017-05-05T05:05:13.156Z,1012.79
2017-05-05T05:05:53.751Z,1012.81
2017-05-05T05:06:34.336Z,1012.8
2017-05-05T05:07:14.928Z,1012.86
2017-05-05T05:07:55.501Z,1012.88
2017-05-05T05:08:36.177Z,1012.85
2017-05-05T05:09:16.858Z,1012.88
2017-05-05T05:09:57.477Z,1012.83
2017-05-05T05:10:38.089Z,1012.88
2017-05-05T05:11:18.674Z,1012.88
2017-05-05T05:11:59.352Z,1012.92
2017-05-05T05:12:40.055Z,1012.88
2017-05-05T05:13:20.636Z,1012.87
2017-05-05T05:14:01.203Z,1012.82
2017-05-05T05:14:41.781Z,1012.78
2017-05-05T05:15:22.374Z,1012.8
2017-05-05T05:16:02.966Z,1012.79
2017-05-05T05:16:43.532Z,1012.76
2017-05-05T05:17:24.128Z,1012.75
2017-05-05T05:18:04.722Z,1012.81
2017-05-05T05:18:45.336Z,1012.81
2017-05-05T05:19:25.926Z,1012.82
2017-05-05T05:20:06.575Z,1012.86
2017-05-05T05:20:47.161Z,1012.92
2017-05-05T05:21:27.735Z,1012.89
2017-05-05T05:22:08.358Z,1012.89
2017-05-05T05:22:48.935Z,1012.94
2017-05-05T05:23:29.515Z,1012.88
2017-05-05T05:24:10.084Z,1012.93
2017-05-05T05:24:50.708Z,1012.95
2017-05-05T05:25:31.294Z,1012.95
2017-05-05T05:26:11.909Z,1012.99
2017-05-05T05:26:52.508Z,1013
2017-05-05T05:27:33.098Z,1013.03
2017-05-05T05:28:13.691Z,1012.99
2017-05-05T05:28:54.278Z,1013.01
2017-05-05T05:29:34.893Z,1012.99
2017-05-05T05:30:15.499Z,1013.03
2017-05-05T05:30:56.088Z,1013.04
2017-05-05T05:31:36.700Z,1013
2017-05-05T05:32:17.373Z,1013.03
2017-05-05T05:32:58.073Z,1013.02
2017-05-05T05:33:38.659Z,1013.03
2017-05-05T05:34:19.288Z,1013.04
2017-05-05T05:34:59.885Z,1013.05
2017-05-05T05:35:40.469Z,1013.03
2017-05-05T05:36:21.066Z,1013.03
2017-05-05T05:37:01.668Z,1013.02
2017-05-05T05:37:42.287Z,1013.07
2017-05-05T05:38:22.886Z,1013.06
2017-05-05T05:39:03.596Z,1013.07
2017-05-05T05:39:44.271Z,1013.05
2017-05-05T05:40:24.849Z,1013.01
2017-05-05T05:41:05.461Z,1013.02
2017-05-05T05:41:46.057Z,1013.02
2017-05-05T05:42:26.666Z,1012.98
2017-05-05T05:43:07.350Z,1012.99
2017-05-05T05:43:47.972Z,1013.03
2017-05-05T05:44:28.564Z,1013.02
2017-05-05T05:45:09.153Z,1012.98
2017-05-05T05:45:49.738Z,1013
2017-05-05T05:46:30.336Z,1013.01
2017-05-05T05:47:11.070Z,1013.01
2017-05-05T05:47:51.691Z,1013.01
2017-05-05T05:48:32.390Z,1013.03
2017-05-05T05:49:13.001Z,1013
2017-05-05T05:49:53.587Z,1013.03
2017-05-05T05:50:34.222Z,1013.05
2017-05-05T05:51:14.797Z,1013.03
2017-05-05T05:51:55.406Z,1013.01
2017-05-05T05:52:36.065Z,1013.01
2017-05-05T05:53:16.649Z,1013.02
2017-05-05T05:53:57.240Z,1013.06
2017-05-05T05:54:37.858Z,1013
2017-05-05T05:55:18.450Z,1013.03
2017-05-05T05:55:59.153Z,1013.09
2017-05-05T05:56:39.710Z,1013.06
2017-05-05T05:57:20.357Z,1013.09
2017-05-05T05:58:00.991Z,1013.08
2017-05-05T05:58:41.577Z,1013.07
2017-05-05T05:59:22.191Z,1013.11
2017-05-05T06:00:02.815Z,1013.13
2017-05-05T06:00:43.397Z,1013.11
2017-05-05T06:01:23.986Z,1013.14
2017-05-05T06:02:04.596Z,1013.11
2017-05-05T06:02:45.195Z,1013.11
2017-05-05T06:03:25.877Z,1013.1
2017-05-05T06:04:06.539Z,1013.1
2017-05-05T06:04:47.092Z,1013.11
2017-05-05T06:05:27.695Z,1013.11
2017-05-05T06:06:08.323Z,1013.06
2017-05-05T06:06:48.900Z,1013.09
2017-05-05T06:07:29.565Z,1013.1
2017-05-05T06:08:10.213Z,1013.09
2017-05-05T06:08:50.780Z,1013.12
2017-05-05T06:09:31.419Z,1013.1
2017-05-05T06:10:12.069Z,1013.11
2017-05-05T06:10:52.675Z,1013.13
2017-05-05T06:11:33.299Z,1013.11
2017-05-05T06:12:13.933Z,1013.12
2017-05-05T06:12:54.522Z,1013.09
2017-05-05T06:13:35.138Z,1013.1
2017-05-05T06:14:15.692Z,1013.08
2017-05-05T06:14:56.338Z,1013.12
2017-05-05T06:15:36.935Z,1013.09
2017-05-05T06:16:17.547Z,1013.09
2017-05-05T06:16:58.123Z,1013.12
2017-05-05T06:17:38.913Z,1013.12
2017-05-05T06:18:19.531Z,1013.09
2017-05-05T06:19:00.130Z,1013.15
2017-05-05T06:19:40.710Z,1013.1
2017-05-05T06:20:21.355Z,1013.1
2017-05-05T06:21:01.926Z,1013.06
2017-05-05T06:21:42.514Z,1013.14
2017-05-05T06:22:23.164Z,1013.08
2017-05-05T06:23:03.728Z,1013.09
2017-05-05T06:23:44.378Z,1013.11
2017-05-05T06:24:25.039Z,1013.15
2017-05-05T06:25:05.634Z,1013.15
2017-05-05T06:25:46.237Z,1013.17
2017-05-05T06:26:26.851Z,1013.14
2017-05-05T06:27:07.435Z,1013.17
2017-05-05T06:27:48.059Z,1013.17
2017-05-05T06:28:28.639Z,1013.12
2017-05-05T06:29:09.233Z,1013.09
2017-05-05T06:29:49.815Z,1013.12
2017-05-05T06:30:30.402Z,1013.08
2017-05-05T06:31:10.997Z,1013.13
2017-05-05T06:31:51.590Z,1013.16
2017-05-05T06:32:32.227Z,1013.15
2017-05-05T06:33:12.861Z,1013.12
2017-05-05T06:33:53.453Z,1013.14
2017-05-05T06:34:34.025Z,1013.11
2017-05-05T06:35:14.600Z,1013.16
2017-05-05T06:35:55.183Z,1013.14
2017-05-05T06:36:35.795Z,1013.13
2017-05-05T06:37:16.384Z,1013.13
2017-05-05T06:37:57.071Z,1013.11
2017-05-05T06:38:37.679Z,1013.14
2017-05-05T06:39:18.251Z,1013.12
2017-05-05T06:39:58.830Z,1013.11
2017-05-05T06:40:39.414Z,1013.12
2017-05-05T06:41:20.008Z,1013.1
2017-05-05T06:42:00.579Z,1013.11
2017-05-05T06:42:41.239Z,1013.11
2017-05-05T06:43:21.788Z,1013.15
2017-05-05T06:44:02.382Z,1013.15
2017-05-05T06:44:42.971Z,1013.15
2017-05-05T06:45:23.567Z,1013.15
2017-05-05T06:46:04.156Z,1013.17
2017-05-05T06:46:44.768Z,1013.11
2017-05-05T06:47:25.383Z,1013.18
2017-05-05T06:48:06.010Z,1013.14
2017-05-05T06:48:46.619Z,1013.18
2017-05-05T06:49:27.222Z,1013.17
2017-05-05T06:50:07.820Z,1013.14
2017-05-05T06:50:48.442Z,1013.18
2017-05-05T06:51:29.051Z,1013.23
2017-05-05T06:52:09.654Z,1013.23
2017-05-05T06:52:50.252Z,1013.24
2017-05-05T06:53:30.865Z,1013.2
2017-05-05T06:54:11.486Z,1013.24
2017-05-05T06:54:52.089Z,1013.24
2017-05-05T06:55:32.691Z,1013.21
2017-05-05T06:56:13.331Z,1013.21
2017-05-05T06:56:53.940Z,1013.19
2017-05-05T06:57:34.607Z,1013.19
2017-05-05T06:58:15.186Z,1013.2
2017-05-05T06:58:55.812Z,1013.22
2017-05-05T06:59:36.440Z,1013.22
2017-05-05T07:00:17.006Z,1013.2
2017-05-05T07:00:57.603Z,1013.24
2017-05-05T07:01:38.211Z,1013.24
2017-05-05T07:02:18.796Z,1013.23
2017-05-05T07:02:59.410Z,1013.22
2017-05-05T07:03:40.018Z,1013.24
2017-05-05T07:04:20.602Z,1013.21
2017-05-05T07:05:01.189Z,1013.22
2017-05-05T07:05:41.789Z,1013.19
2017-05-05T07:06:22.364Z,1013.23
2017-05-05T07:07:02.958Z,1013.22
2017-05-05T07:07:43.600Z,1013.24
2017-05-05T07:08:24.190Z,1013.23
2017-05-05T07:09:04.794Z,1013.24
2017-05-05T07:09:45.549Z,1013.23
2017-05-05T07:10:26.209Z,1013.27
2017-05-05T07:11:06.779Z,1013.26
2017-05-05T07:11:47.365Z,1013.28
2017-05-05T07:12:28.023Z,1013.28
2017-05-05T07:13:08.642Z,1013.27
2017-05-05T07:13:49.221Z,1013.33
2017-05-05T07:14:29.814Z,1013.3
2017-05-05T07:15:10.391Z,1013.33
2017-05-05T07:15:50.991Z,1013.33
2017-05-05T07:16:31.672Z,1013.33
2017-05-05T07:17:12.265Z,1013.33
2017-05-05T07:17:52.879Z,1013.39
2017-05-05T07:18:33.504Z,1013.37
2017-05-05T07:19:14.134Z,1013.37
2017-05-05T07:19:54.706Z,1013.4
2017-05-05T07:20:35.313Z,1013.4
2017-05-05T07:21:15.903Z,1013.41
2017-05-05T07:21:56.546Z,1013.39
2017-05-05T07:22:37.148Z,1013.39
2017-05-05T07:23:17.775Z,1013.41
2017-05-05T07:23:58.363Z,1013.42
2017-05-05T07:24:38.947Z,1013.4
2017-05-05T07:25:19.524Z,1013.4
2017-05-05T07:26:00.094Z,1013.4
2017-05-05T07:26:40.692Z,1013.44
2017-05-05T07:27:21.310Z,1013.41
2017-05-05T07:28:01.961Z,1013.44
2017-05-05T07:28:42.549Z,1013.45
2017-05-05T07:29:23.130Z,1013.41
2017-05-05T07:30:03.719Z,1013.45
2017-05-05T07:30:44.286Z,1013.49
2017-05-05T07:31:24.878Z,1013.47
2017-05-05T07:32:05.470Z,1013.5
2017-05-05T07:32:46.056Z,1013.48
2017-05-05T07:33:26.640Z,1013.48
2017-05-05T07:34:07.230Z,1013.5
2017-05-05T07:34:47.807Z,1013.52
2017-05-05T07:35:28.405Z,1013.5
2017-05-05T07:36:09.001Z,1013.48
2017-05-05T07:36:49.595Z,1013.48
2017-05-05T07:37:30.200Z,1013.48
2017-05-05T07:38:10.779Z,1013.46
2017-05-05T07:38:51.388Z,1013.52
2017-05-05T07:39:31.987Z,1013.53
2017-05-05T07:40:12.555Z,1013.53
2017-05-05T07:40:53.146Z,1013.49
2017-05-05T07:41:33.718Z,1013.48
2017-05-05T07:42:14.292Z,1013.5
2017-05-05T07:42:54.870Z,1013.48
2017-05-05T07:43:35.464Z,1013.5
2017-05-05T07:44:16.048Z,1013.52
2017-05-05T07:44:56.704Z,1013.52
2017-05-05T07:45:37.303Z,1013.52
2017-05-05T07:46:17.898Z,1013.54
2017-05-05T07:46:58.493Z,1013.51
2017-05-05T07:47:39.098Z,1013.53
2017-05-05T07:48:19.685Z,1013.53
2017-05-05T07:49:00.305Z,1013.5
2017-05-05T07:49:40.941Z,1013.55
2017-05-05T07:50:21.511Z,1013.5
2017-05-05T07:51:02.122Z,1013.53
2017-05-05T07:51:42.703Z,1013.52
2017-05-05T07:52:23.327Z,1013.57
2017-05-05T07:53:03.968Z,1013.57
2017-05-05T07:53:44.531Z,1013.56
2017-05-05T07:54:25.108Z,1013.57
2017-05-05T07:55:05.676Z,1013.56
2017-05-05T07:55:46.299Z,1013.58
2017-05-05T07:56:26.870Z,1013.59
2017-05-05T07:57:07.462Z,1013.6
2017-05-05T07:57:48.440Z,1013.63
2017-05-05T07:58:29.117Z,1013.66
2017-05-05T07:59:09.718Z,1013.61
2017-05-05T07:59:50.295Z,1013.59
2017-05-05T08:00:30.892Z,1013.61
2017-05-05T08:01:11.468Z,1013.62
2017-05-05T08:01:52.148Z,1013.64
2017-05-05T08:02:32.754Z,1013.64
2017-05-05T08:03:13.370Z,1013.61
2017-05-05T08:03:53.952Z,1013.63
2017-05-05T08:04:34.573Z,1013.65
2017-05-05T08:05:15.150Z,1013.63
2017-05-05T08:05:55.727Z,1013.62
2017-05-05T08:06:36.309Z,1013.66
2017-05-05T08:07:16.890Z,1013.65
2017-05-05T08:07:57.471Z,1013.63
2017-05-05T08:08:38.092Z,1013.69
2017-05-05T08:09:18.697Z,1013.66
2017-05-05T08:09:59.294Z,1013.67
2017-05-05T08:10:39.868Z,1013.66
2017-05-05T08:11:20.445Z,1013.63
2017-05-05T08:12:01.039Z,1013.65
2017-05-05T08:12:41.634Z,1013.62